createdAt,value
2019-02-10T00:00:05.100Z,10.60
2019-02-10T00:01:05.321Z,14.10
2019-02-10T00:02:05.541Z,17.70
2019-02-10T00:03:05.771Z,13.60
2019-02-10T00:04:05.987Z,16.10
2019-02-10T00:05:06.208Z,18.70
2019-02-10T00:06:06.429Z,15.50
2019-02-10T00:07:06.655Z,15.00
2019-02-10T00:08:06.873Z,11.80
2019-02-10T00:09:07.100Z,14.40
2019-02-10T00:10:07.317Z,10.80
2019-02-10T00:11:07.539Z,14.50
2019-02-10T00:12:07.763Z,12.30
2019-02-10T00:13:07.982Z,12.40
2019-02-10T00:14:08.207Z,12.90
2019-02-10T00:15:08.468Z,10.90
2019-02-10T00:16:08.694Z,13.80
2019-02-10T00:17:08.906Z,21.10
2019-02-10T00:18:09.129Z,11.60
2019-02-10T00:19:09.352Z,13.00
2019-02-10T00:20:09.575Z,14.10
2019-02-10T00:21:09.799Z,10.30
2019-02-10T00:22:10.025Z,14.70
2019-02-10T00:23:10.246Z,12.90
2019-02-10T00:24:10.467Z,16.50
2019-02-10T00:25:10.690Z,17.60
2019-02-10T00:26:10.911Z,14.00
2019-02-10T00:27:11.130Z,11.50
2019-02-10T00:28:11.353Z,13.80
2019-02-10T00:29:11.568Z,17.00
2019-02-10T00:30:11.798Z,13.50
2019-02-10T00:31:12.011Z,12.50
2019-02-10T00:32:12.234Z,14.60
2019-02-10T00:33:12.458Z,15.60
2019-02-10T00:34:12.683Z,17.90
2019-02-10T00:35:12.906Z,12.30
2019-02-10T00:36:13.125Z,14.20
2019-02-10T00:37:13.349Z,13.60
2019-02-10T00:38:13.576Z,12.90
2019-02-10T00:39:13.794Z,14.60
2019-02-10T00:40:14.018Z,17.10
2019-02-10T00:41:14.238Z,9.50
2019-02-10T00:42:14.459Z,11.40
2019-02-10T00:43:14.681Z,13.80
2019-02-10T00:44:14.905Z,17.20
2019-02-10T00:45:15.127Z,13.30
2019-02-10T00:46:15.351Z,16.80
2019-02-10T00:47:15.571Z,12.00
2019-02-10T00:48:15.795Z,15.50
2019-02-10T00:49:16.022Z,16.20
2019-02-10T00:50:16.239Z,14.40
2019-02-10T00:51:16.458Z,15.00
2019-02-10T00:52:16.684Z,14.60
2019-02-10T00:53:16.903Z,9.70
2019-02-10T00:54:17.125Z,15.50
2019-02-10T00:55:17.350Z,13.50
2019-02-10T00:56:17.571Z,14.10
2019-02-10T00:57:17.790Z,14.70
2019-02-10T00:58:18.008Z,16.50
2019-02-10T00:59:18.217Z,19.20
2019-02-10T01:00:18.439Z,13.60
2019-02-10T01:01:18.660Z,14.90
2019-02-10T01:02:18.883Z,13.50
2019-02-10T01:03:19.108Z,15.20
2019-02-10T01:04:19.380Z,18.00
2019-02-10T01:05:19.552Z,16.10
2019-02-10T01:06:19.774Z,15.70
2019-02-10T01:07:19.996Z,15.10
2019-02-10T01:08:20.212Z,17.70
2019-02-10T01:09:20.432Z,14.60
2019-02-10T01:10:20.650Z,13.90
2019-02-10T01:11:20.868Z,20.70
2019-02-10T01:12:21.088Z,18.00
2019-02-10T01:13:21.320Z,14.50
2019-02-10T01:14:21.538Z,17.10
2019-02-10T01:15:21.753Z,21.20
2019-02-10T01:16:21.979Z,16.00
2019-02-10T01:17:22.199Z,11.60
2019-02-10T01:18:22.430Z,15.40
2019-02-10T01:19:22.644Z,14.70
2019-02-10T01:20:22.864Z,14.60
2019-02-10T01:21:23.086Z,13.70
2019-02-10T01:22:23.309Z,13.10
2019-02-10T01:23:23.531Z,11.70
2019-02-10T01:24:23.754Z,18.80
2019-02-10T01:25:23.977Z,17.00
2019-02-10T01:26:24.199Z,17.30
2019-02-10T01:27:24.423Z,17.50
2019-02-10T01:28:24.654Z,18.10
2019-02-10T01:29:24.872Z,16.20
2019-02-10T01:30:25.084Z,15.90
2019-02-10T01:31:25.311Z,14.60
2019-02-10T01:32:25.530Z,14.00
2019-02-10T01:33:25.754Z,16.00
2019-02-10T01:34:25.977Z,16.70
2019-02-10T01:35:26.198Z,12.40
2019-02-10T01:36:26.422Z,12.80
2019-02-10T01:37:26.644Z,13.00
2019-02-10T01:38:26.871Z,14.30
2019-02-10T01:39:27.085Z,19.90
2019-02-10T01:40:27.311Z,11.20
2019-02-10T01:41:27.530Z,14.70
2019-02-10T01:42:27.753Z,15.00
2019-02-10T01:43:27.976Z,18.00
2019-02-10T01:44:28.201Z,13.40
2019-02-10T01:45:28.424Z,17.10
2019-02-10T01:46:28.646Z,17.00
2019-02-10T01:47:28.866Z,12.40
2019-02-10T01:48:29.088Z,14.00
2019-02-10T01:49:29.311Z,13.20
2019-02-10T01:50:29.529Z,13.40
2019-02-10T01:51:29.753Z,15.60
2019-02-10T01:52:29.973Z,15.20
2019-02-10T01:53:30.203Z,12.20
2019-02-10T01:54:30.415Z,14.10
2019-02-10T01:55:30.639Z,16.60
2019-02-10T01:56:30.865Z,17.70
2019-02-10T01:57:31.086Z,13.90
2019-02-10T01:58:31.301Z,15.90
2019-02-10T01:59:31.523Z,13.50
2019-02-10T02:00:31.749Z,15.20
2019-02-10T02:01:31.973Z,14.40
2019-02-10T02:02:32.240Z,13.80
2019-02-10T02:03:32.420Z,11.30
2019-02-10T02:04:32.646Z,18.20
2019-02-10T02:05:32.866Z,15.50
2019-02-10T02:06:33.089Z,14.20
2019-02-10T02:07:33.311Z,13.00
2019-02-10T02:08:33.531Z,15.30
2019-02-10T02:09:33.757Z,18.20
2019-02-10T02:10:33.976Z,15.40
2019-02-10T02:11:34.201Z,13.30
2019-02-10T02:12:34.424Z,14.60
2019-02-10T02:13:36.430Z,15.70
2019-02-10T02:14:34.870Z,13.20
2019-02-10T02:15:35.092Z,12.20
2019-02-10T02:16:35.320Z,11.80
2019-02-10T02:17:35.538Z,16.70
2019-02-10T02:18:35.761Z,15.00
2019-02-10T02:19:35.987Z,12.80
2019-02-10T02:20:36.210Z,13.20
2019-02-10T02:21:36.433Z,16.40
2019-02-10T02:22:36.658Z,14.50
2019-02-10T02:23:36.879Z,14.40
2019-02-10T02:24:37.106Z,15.50
2019-02-10T02:25:37.328Z,12.30
2019-02-10T02:26:37.551Z,15.40
2019-02-10T02:27:37.773Z,12.60
2019-02-10T02:28:37.995Z,16.90
2019-02-10T02:29:38.225Z,13.00
2019-02-10T02:30:38.444Z,11.40
2019-02-10T02:31:38.675Z,16.60
2019-02-10T02:32:38.893Z,13.20
2019-02-10T02:33:39.126Z,13.30
2019-02-10T02:34:39.339Z,12.90
2019-02-10T02:35:39.561Z,13.80
2019-02-10T02:36:39.787Z,12.20
2019-02-10T02:37:40.006Z,14.60
2019-02-10T02:38:40.231Z,14.90
2019-02-10T02:39:40.453Z,15.00
2019-02-10T02:40:40.686Z,13.20
2019-02-10T02:41:40.903Z,15.40
2019-02-10T02:42:41.122Z,14.70
2019-02-10T02:43:41.350Z,15.80
2019-02-10T02:44:41.568Z,15.40
2019-02-10T02:45:41.801Z,14.90
2019-02-10T02:46:42.018Z,11.00
2019-02-10T02:47:42.242Z,13.80
2019-02-10T02:48:42.464Z,12.00
2019-02-10T02:49:42.688Z,13.40
2019-02-10T02:50:42.910Z,12.70
2019-02-10T02:51:43.147Z,12.70
2019-02-10T02:52:43.367Z,9.30
2019-02-10T02:53:43.577Z,15.50
2019-02-10T02:54:43.804Z,17.40
2019-02-10T02:55:44.021Z,13.00
2019-02-10T02:56:44.236Z,14.30
2019-02-10T02:57:44.462Z,16.80
2019-02-10T02:58:44.686Z,15.10
2019-02-10T02:59:44.912Z,12.90
2019-02-10T03:00:45.137Z,14.60
2019-02-10T03:01:45.352Z,15.30
2019-02-10T03:02:45.572Z,18.30
2019-02-10T03:03:45.794Z,14.20
2019-02-10T03:04:46.017Z,11.60
2019-02-10T03:05:46.240Z,11.00
2019-02-10T03:06:46.457Z,11.80
2019-02-10T03:07:46.680Z,10.80
2019-02-10T03:08:46.900Z,12.40
2019-02-10T03:09:47.124Z,18.50
2019-02-10T03:10:47.347Z,11.80
2019-02-10T03:11:47.572Z,9.90
2019-02-10T03:12:47.793Z,16.20
2019-02-10T03:13:48.031Z,10.20
2019-02-10T03:14:48.241Z,11.70
2019-02-10T03:15:48.467Z,15.20
2019-02-10T03:16:48.689Z,13.40
2019-02-10T03:17:48.904Z,14.60
2019-02-10T03:18:53.138Z,13.00
2019-02-10T03:19:49.366Z,14.10
2019-02-10T03:20:49.570Z,13.00
2019-02-10T03:21:49.786Z,14.60
2019-02-10T03:22:50.008Z,14.60
2019-02-10T03:23:50.229Z,10.40
2019-02-10T03:24:50.447Z,14.00
2019-02-10T03:25:50.673Z,10.50
2019-02-10T03:26:50.893Z,9.40
2019-02-10T03:27:51.115Z,12.30
2019-02-10T03:28:51.345Z,14.40
2019-02-10T03:29:51.558Z,13.00
2019-02-10T03:30:51.785Z,13.50
2019-02-10T03:31:52.007Z,14.00
2019-02-10T03:32:52.230Z,13.80
2019-02-10T03:33:52.447Z,13.20
2019-02-10T03:34:52.681Z,17.70
2019-02-10T03:35:52.892Z,11.50
2019-02-10T03:36:53.122Z,16.00
2019-02-10T03:37:53.349Z,11.70
2019-02-10T03:38:53.564Z,13.80
2019-02-10T03:39:53.783Z,11.10
2019-02-10T03:40:54.008Z,11.00
2019-02-10T03:41:54.232Z,14.60
2019-02-10T03:42:54.446Z,12.20
2019-02-10T03:43:54.674Z,11.60
2019-02-10T03:44:54.898Z,16.60
2019-02-10T03:45:55.122Z,13.60
2019-02-10T03:46:55.352Z,12.60
2019-02-10T03:47:55.578Z,12.30
2019-02-10T03:48:55.788Z,13.10
2019-02-10T03:49:56.011Z,14.20
2019-02-10T03:50:56.234Z,14.20
2019-02-10T03:51:56.456Z,14.70
2019-02-10T03:52:56.674Z,13.70
2019-02-10T03:53:56.899Z,14.00
2019-02-10T03:54:57.122Z,8.30
2019-02-10T03:55:57.350Z,10.30
2019-02-10T03:56:57.566Z,13.30
2019-02-10T03:57:57.790Z,11.00
2019-02-10T03:58:58.013Z,12.70
2019-02-10T03:59:58.245Z,11.20
2019-02-10T04:00:58.450Z,13.20
2019-02-10T04:01:58.684Z,14.40
2019-02-10T04:02:58.910Z,11.50
2019-02-10T04:03:59.137Z,12.00
2019-02-10T04:04:59.354Z,12.60
2019-02-10T04:05:59.578Z,14.40
2019-02-10T04:06:59.799Z,13.40
2019-02-10T04:08:00.021Z,12.30
2019-02-10T04:09:00.245Z,8.80
2019-02-10T04:10:00.530Z,13.80
2019-02-10T04:11:00.693Z,12.60
2019-02-10T04:12:00.910Z,12.50
2019-02-10T04:13:01.135Z,11.90
2019-02-10T04:14:01.356Z,11.40
2019-02-10T04:15:01.575Z,10.20
2019-02-10T04:16:01.795Z,9.60
2019-02-10T04:17:02.017Z,12.60
2019-02-10T04:18:02.239Z,9.40
2019-02-10T04:19:02.469Z,12.10
2019-02-10T04:20:02.686Z,6.20
2019-02-10T04:21:02.912Z,10.30
2019-02-10T04:22:03.131Z,9.70
2019-02-10T04:23:03.359Z,7.80
2019-02-10T04:24:03.572Z,12.20
2019-02-10T04:25:03.802Z,11.90
2019-02-10T04:26:04.024Z,10.70
2019-02-10T04:27:04.241Z,13.10
2019-02-10T04:28:04.469Z,12.10
2019-02-10T04:29:04.676Z,9.30
2019-02-10T04:30:04.897Z,11.10
2019-02-10T04:31:05.121Z,12.00
2019-02-10T04:32:05.342Z,9.10
2019-02-10T04:33:05.562Z,12.50
2019-02-10T04:34:05.804Z,10.70
2019-02-10T04:35:06.007Z,11.80
2019-02-10T04:36:06.232Z,12.60
2019-02-10T04:37:06.454Z,13.90
2019-02-10T04:38:06.680Z,13.00
2019-02-10T04:39:06.906Z,13.00
2019-02-10T04:40:07.131Z,12.60
2019-02-10T04:41:07.352Z,10.90
2019-02-10T04:42:07.575Z,13.60
2019-02-10T04:43:07.800Z,12.20
2019-02-10T04:44:08.025Z,12.60
2019-02-10T04:45:08.249Z,12.30
2019-02-10T04:46:08.468Z,8.80
2019-02-10T04:47:08.700Z,10.70
2019-02-10T04:48:08.913Z,10.70
2019-02-10T04:49:09.140Z,10.50
2019-02-10T04:50:09.365Z,8.20
2019-02-10T04:51:09.587Z,7.30
2019-02-10T04:52:09.806Z,8.40
2019-02-10T04:53:10.031Z,13.90
2019-02-10T04:54:10.254Z,9.90
2019-02-10T04:55:10.479Z,14.40
2019-02-10T04:56:10.696Z,15.40
2019-02-10T04:57:10.919Z,12.20
2019-02-10T04:58:11.151Z,12.40
2019-02-10T04:59:11.365Z,13.80
2019-02-10T05:00:11.586Z,8.20
2019-02-10T05:01:11.795Z,11.70
2019-02-10T05:02:12.022Z,10.10
2019-02-10T05:03:12.247Z,11.00
2019-02-10T05:04:12.474Z,11.30
2019-02-10T05:05:12.696Z,12.10
2019-02-10T05:06:12.925Z,11.00
2019-02-10T05:07:13.144Z,8.40
2019-02-10T05:08:13.361Z,12.00
2019-02-10T05:09:13.582Z,11.40
2019-02-10T05:10:13.805Z,14.70
2019-02-10T05:11:14.029Z,10.60
2019-02-10T05:12:14.250Z,9.60
2019-02-10T05:13:14.474Z,8.20
2019-02-10T05:14:14.697Z,9.40
2019-02-10T05:15:14.920Z,9.00
2019-02-10T05:16:15.144Z,9.40
2019-02-10T05:17:15.370Z,7.80
2019-02-10T05:18:15.606Z,9.20
2019-02-10T05:19:15.814Z,11.30
2019-02-10T05:20:16.028Z,10.70
2019-02-10T05:21:16.253Z,11.40
2019-02-10T05:22:16.472Z,9.50
2019-02-10T05:23:16.694Z,8.50
2019-02-10T05:24:16.917Z,11.40
2019-02-10T05:25:17.141Z,10.80
2019-02-10T05:26:17.364Z,11.50
2019-02-10T05:27:17.595Z,12.60
2019-02-10T05:28:17.816Z,8.70
2019-02-10T05:29:18.024Z,13.00
2019-02-10T05:30:18.244Z,9.30
2019-02-10T05:31:18.465Z,7.50
2019-02-10T05:32:18.691Z,9.10
2019-02-10T05:33:18.912Z,8.80
2019-02-10T05:34:19.133Z,11.80
2019-02-10T05:35:19.358Z,11.80
2019-02-10T05:36:19.579Z,6.60
2019-02-10T05:37:19.803Z,9.10
2019-02-10T05:38:20.026Z,8.80
2019-02-10T05:39:20.245Z,9.00
2019-02-10T05:40:20.478Z,8.70
2019-02-10T05:41:20.691Z,9.70
2019-02-10T05:42:20.917Z,7.80
2019-02-10T05:43:21.130Z,5.30
2019-02-10T05:44:21.363Z,6.20
2019-02-10T05:45:21.588Z,8.50
2019-02-10T05:46:21.809Z,7.90
2019-02-10T05:47:22.047Z,11.40
2019-02-10T05:48:22.251Z,9.80
2019-02-10T05:49:22.488Z,7.50
2019-02-10T05:50:22.702Z,9.10
2019-02-10T05:51:22.920Z,7.80
2019-02-10T05:52:23.136Z,9.70
2019-02-10T05:53:23.356Z,9.40
2019-02-10T05:54:23.579Z,8.80
2019-02-10T05:55:23.805Z,6.70
2019-02-10T05:56:24.030Z,9.50
2019-02-10T05:57:24.248Z,8.70
2019-02-10T05:58:24.472Z,8.40
2019-02-10T05:59:24.693Z,11.00
2019-02-10T06:00:24.905Z,8.20
2019-02-10T06:01:25.142Z,7.90
2019-02-10T06:02:25.365Z,10.20
2019-02-10T06:03:25.591Z,11.30
2019-02-10T06:04:25.816Z,5.90
2019-02-10T06:05:26.037Z,7.60
2019-02-10T06:06:26.253Z,9.60
2019-02-10T06:07:26.473Z,10.00
2019-02-10T06:08:26.699Z,9.30
2019-02-10T06:09:26.916Z,9.60
2019-02-10T06:10:27.131Z,8.00
2019-02-10T06:11:27.346Z,8.50
2019-02-10T06:12:27.571Z,7.60
2019-02-10T06:13:27.794Z,11.00
2019-02-10T06:14:28.021Z,7.70
2019-02-10T06:15:28.239Z,7.10
2019-02-10T06:16:28.462Z,9.20
2019-02-10T06:17:28.703Z,7.20
2019-02-10T06:18:28.906Z,10.90
2019-02-10T06:19:29.125Z,8.20
2019-02-10T06:20:29.367Z,7.90
2019-02-10T06:21:29.562Z,8.40
2019-02-10T06:22:29.793Z,8.30
2019-02-10T06:23:30.003Z,9.60
2019-02-10T06:24:30.203Z,9.40
2019-02-10T06:25:30.433Z,6.90
2019-02-10T06:26:30.644Z,10.70
2019-02-10T06:27:30.858Z,6.60
2019-02-10T06:28:31.095Z,8.20
2019-02-10T06:29:31.296Z,6.00
2019-02-10T06:30:33.285Z,8.90
2019-02-10T06:31:31.755Z,7.40
2019-02-10T06:32:31.969Z,10.70
2019-02-10T06:33:32.195Z,9.20
2019-02-10T06:34:32.414Z,6.30
2019-02-10T06:35:32.649Z,9.00
2019-02-10T06:36:32.868Z,8.70
2019-02-10T06:37:33.084Z,9.40
2019-02-10T06:38:33.309Z,5.40
2019-02-10T06:39:33.530Z,9.40
2019-02-10T06:40:33.753Z,8.60
2019-02-10T06:41:33.970Z,7.10
2019-02-10T06:42:34.189Z,7.00
2019-02-10T06:43:34.411Z,5.70
2019-02-10T06:44:34.635Z,6.80
2019-02-10T06:45:34.857Z,7.10
2019-02-10T06:46:35.098Z,6.20
2019-02-10T06:47:35.317Z,6.10
2019-02-10T06:48:35.533Z,4.80
2019-02-10T06:49:35.755Z,5.60
2019-02-10T06:50:35.980Z,6.40
2019-02-10T06:51:36.203Z,6.00
2019-02-10T06:52:36.421Z,8.40
2019-02-10T06:53:36.645Z,8.40
2019-02-10T06:54:36.870Z,7.60
2019-02-10T06:55:37.091Z,11.40
2019-02-10T06:56:37.316Z,8.20
2019-02-10T06:57:37.546Z,5.60
2019-02-10T06:58:37.759Z,4.80
2019-02-10T06:59:38.003Z,9.20
2019-02-10T07:00:38.216Z,5.90
2019-02-10T07:01:38.439Z,6.90
2019-02-10T07:02:38.664Z,9.00
2019-02-10T07:03:38.889Z,6.20
2019-02-10T07:04:39.115Z,7.60
2019-02-10T07:05:39.338Z,6.70
2019-02-10T07:06:39.561Z,7.20
2019-02-10T07:07:39.787Z,5.40
2019-02-10T07:08:40.948Z,6.90
2019-02-10T07:09:40.223Z,8.20
2019-02-10T07:10:40.451Z,6.20
2019-02-10T07:11:40.669Z,6.30
2019-02-10T07:12:40.898Z,10.40
2019-02-10T07:13:41.126Z,7.20
2019-02-10T07:14:41.340Z,5.10
2019-02-10T07:15:41.564Z,6.10
2019-02-10T07:16:41.820Z,6.40
2019-02-10T07:17:42.005Z,6.00
2019-02-10T07:18:42.228Z,7.20
2019-02-10T07:19:42.453Z,6.10
2019-02-10T07:20:42.673Z,6.80
2019-02-10T07:21:42.900Z,8.70
2019-02-10T07:22:43.120Z,7.40
2019-02-10T07:23:43.347Z,6.00
2019-02-10T07:24:43.568Z,8.00
2019-02-10T07:25:43.788Z,8.30
2019-02-10T07:26:44.006Z,9.00
2019-02-10T07:27:44.256Z,4.40
2019-02-10T07:28:44.465Z,9.00
2019-02-10T07:29:44.664Z,7.70
2019-02-10T07:30:44.885Z,6.20
2019-02-10T07:31:45.114Z,6.50
2019-02-10T07:32:45.332Z,7.80
2019-02-10T07:33:45.691Z,8.40
2019-02-10T07:34:48.227Z,5.40
2019-02-10T07:35:46.030Z,5.20
2019-02-10T07:36:46.346Z,7.10
2019-02-10T07:37:46.471Z,6.00
2019-02-10T07:38:46.719Z,5.60
2019-02-10T07:39:46.909Z,6.20
2019-02-10T07:40:47.124Z,5.70
2019-02-10T07:41:47.387Z,9.30
2019-02-10T07:42:47.569Z,5.30
2019-02-10T07:43:47.808Z,4.10
2019-02-10T07:44:48.035Z,6.00
2019-02-10T07:45:48.253Z,4.80
2019-02-10T07:46:48.491Z,9.10
2019-02-10T07:47:48.681Z,5.80
2019-02-10T07:48:48.926Z,7.40
2019-02-10T07:49:49.152Z,6.60
2019-02-10T07:50:49.342Z,5.30
2019-02-10T07:51:49.569Z,5.60
2019-02-10T07:52:49.775Z,4.60
2019-02-10T07:53:50.042Z,5.90
2019-02-10T07:54:50.236Z,7.00
2019-02-10T07:55:50.444Z,5.60
2019-02-10T07:56:50.694Z,4.90
2019-02-10T07:57:50.944Z,3.70
2019-02-10T07:58:51.083Z,7.20
2019-02-10T07:59:51.352Z,3.80
2019-02-10T08:00:51.516Z,7.80
2019-02-10T08:01:51.739Z,6.70
2019-02-10T08:02:51.970Z,9.00
2019-02-10T08:03:52.171Z,8.00
2019-02-10T08:04:52.408Z,6.80
2019-02-10T08:05:52.604Z,7.90
2019-02-10T08:06:52.857Z,7.40
2019-02-10T08:07:53.048Z,5.60
2019-02-10T08:08:53.261Z,6.80
2019-02-10T08:09:53.515Z,8.20
2019-02-10T08:10:53.762Z,8.30
2019-02-10T08:11:53.937Z,4.40
2019-02-10T08:12:54.154Z,5.20
2019-02-10T08:13:54.358Z,7.20
2019-02-10T08:14:54.597Z,13.70
2019-02-10T08:15:54.798Z,22.20
2019-02-10T08:16:55.016Z,42.60
2019-02-10T08:17:55.282Z,53.10
2019-02-10T08:18:55.489Z,66.50
2019-02-10T08:19:55.748Z,21.50
2019-02-10T08:20:55.921Z,7.30
2019-02-10T08:21:56.135Z,6.90
2019-02-10T08:22:56.396Z,9.70
2019-02-10T08:23:56.677Z,14.40
2019-02-10T08:24:56.852Z,12.40
2019-02-10T08:25:57.114Z,7.70
2019-02-10T08:26:57.277Z,22.00
2019-02-10T08:27:57.541Z,19.20
2019-02-10T08:28:57.739Z,11.30
2019-02-10T08:29:57.927Z,11.30
2019-02-10T08:30:58.196Z,6.80
2019-02-10T08:31:58.376Z,20.90
2019-02-10T08:32:58.657Z,10.50
2019-02-10T08:33:58.839Z,10.10
2019-02-10T08:34:59.039Z,7.20
2019-02-10T08:35:59.267Z,7.90
2019-02-10T08:36:59.495Z,5.20
2019-02-10T08:37:59.698Z,4.20
2019-02-10T08:38:59.963Z,5.30
2019-02-10T08:40:00.249Z,4.50
2019-02-10T08:41:00.415Z,6.70
2019-02-10T08:42:00.529Z,9.70
2019-02-10T08:43:00.767Z,9.20
2019-02-10T08:44:00.992Z,7.10
2019-02-10T08:45:01.217Z,14.30
2019-02-10T08:46:01.459Z,12.30
2019-02-10T08:47:01.672Z,20.80
2019-02-10T08:48:01.871Z,19.90
2019-02-10T08:49:02.137Z,12.50
2019-02-10T08:50:02.328Z,44.70
2019-02-10T08:51:02.541Z,10.70
2019-02-10T08:52:02.765Z,8.00
2019-02-10T08:53:02.985Z,4.60
2019-02-10T08:54:03.203Z,4.50
2019-02-10T08:55:03.420Z,4.40
2019-02-10T08:56:03.654Z,6.20
2019-02-10T08:57:03.866Z,4.50
2019-02-10T08:58:04.103Z,5.10
2019-02-10T08:59:04.318Z,5.20
2019-02-10T09:00:04.531Z,5.80
2019-02-10T09:01:04.760Z,5.70
2019-02-10T09:02:05.000Z,4.90
2019-02-10T09:03:05.207Z,4.10
2019-02-10T09:04:05.426Z,4.40
2019-02-10T09:05:05.649Z,4.50
2019-02-10T09:06:05.869Z,4.70
2019-02-10T09:07:06.131Z,7.70
2019-02-10T09:08:06.317Z,7.00
2019-02-10T09:09:06.538Z,7.80
2019-02-10T09:10:06.763Z,5.40
2019-02-10T09:11:06.990Z,4.70
2019-02-10T09:12:07.219Z,4.90
2019-02-10T09:13:07.445Z,4.80
2019-02-10T09:14:07.674Z,5.30
2019-02-10T09:15:07.882Z,4.80
2019-02-10T09:16:08.107Z,6.80
2019-02-10T09:17:08.336Z,6.50
2019-02-10T09:18:08.554Z,4.80
2019-02-10T09:19:08.785Z,4.70
2019-02-10T09:20:09.015Z,5.10
2019-02-10T09:21:09.243Z,5.50
2019-02-10T09:22:09.464Z,5.70
2019-02-10T09:23:09.697Z,6.50
2019-02-10T09:24:09.910Z,5.90
2019-02-10T09:25:10.134Z,5.50
2019-02-10T09:26:10.359Z,3.70
2019-02-10T09:27:10.580Z,5.20
2019-02-10T09:28:10.810Z,5.40
2019-02-10T09:29:11.028Z,5.10
2019-02-10T09:30:11.296Z,7.70
2019-02-10T09:31:11.521Z,2.80
2019-02-10T09:32:11.747Z,5.10
2019-02-10T09:33:11.974Z,5.40
2019-02-10T09:34:12.214Z,4.10
2019-02-10T09:35:12.422Z,4.50
2019-02-10T09:36:12.646Z,5.30
2019-02-10T09:37:12.868Z,3.30
2019-02-10T09:38:13.099Z,4.30
2019-02-10T09:39:13.319Z,4.00
2019-02-10T09:40:13.544Z,3.50
2019-02-10T09:41:13.776Z,3.70
2019-02-10T09:42:14.029Z,4.80
2019-02-10T09:43:14.256Z,4.00
2019-02-10T09:44:14.431Z,3.20
2019-02-10T09:45:14.655Z,2.60
2019-02-10T09:46:14.916Z,3.80
2019-02-10T09:47:15.191Z,4.50
2019-02-10T09:48:15.425Z,3.40
2019-02-10T09:49:15.664Z,2.50
2019-02-10T09:50:15.892Z,2.60
2019-02-10T09:51:16.116Z,2.90
2019-02-10T09:52:16.348Z,3.90
2019-02-10T09:53:16.578Z,3.70
2019-02-10T09:54:16.798Z,5.10
2019-02-10T09:55:17.048Z,4.20
2019-02-10T09:56:17.289Z,4.50
2019-02-10T09:57:17.499Z,3.50
2019-02-10T09:58:17.816Z,4.90
2019-02-10T09:59:17.989Z,5.10
2019-02-10T10:00:18.231Z,2.90
2019-02-10T10:01:18.445Z,3.70
2019-02-10T10:02:18.789Z,3.40
2019-02-10T10:03:18.922Z,3.40
2019-02-10T10:04:19.208Z,3.10
2019-02-10T10:05:19.320Z,3.10
2019-02-10T10:06:19.623Z,2.80
2019-02-10T10:07:19.783Z,3.20
2019-02-10T10:08:19.995Z,3.70
2019-02-10T10:09:20.115Z,3.50
2019-02-10T10:10:20.471Z,3.40
2019-02-10T10:11:20.646Z,5.70
2019-02-10T10:12:20.755Z,3.50
2019-02-10T10:13:21.035Z,2.80
2019-02-10T10:14:21.366Z,2.60
2019-02-10T10:15:21.527Z,3.10
2019-02-10T10:16:21.657Z,3.40
2019-02-10T10:17:21.991Z,4.00
2019-02-10T10:18:22.159Z,5.00
2019-02-10T10:19:22.486Z,2.70
2019-02-10T10:20:22.688Z,2.30
2019-02-10T10:21:22.822Z,3.80
2019-02-10T10:22:23.184Z,3.70
2019-02-10T10:23:23.392Z,4.80
2019-02-10T10:24:23.564Z,4.60
2019-02-10T10:25:23.668Z,3.00
2019-02-10T10:26:24.016Z,3.10
2019-02-10T10:27:24.151Z,4.40
2019-02-10T10:28:24.503Z,4.50
2019-02-10T10:29:24.635Z,3.70
2019-02-10T10:30:24.869Z,2.80
2019-02-10T10:31:25.171Z,4.30
2019-02-10T10:32:25.291Z,3.50
2019-02-10T10:33:25.583Z,3.90
2019-02-10T10:34:25.698Z,4.60
2019-02-10T10:35:25.933Z,2.90
2019-02-10T10:36:26.163Z,3.30
2019-02-10T10:37:26.373Z,3.40
2019-02-10T10:38:26.610Z,2.40
2019-02-10T10:39:27.619Z,3.10
2019-02-10T10:40:27.051Z,2.20
2019-02-10T10:41:27.283Z,5.10
2019-02-10T10:42:27.509Z,3.90
2019-02-10T10:43:27.736Z,3.40
2019-02-10T10:44:27.964Z,2.50
2019-02-10T10:45:28.192Z,3.70
2019-02-10T10:46:28.428Z,2.10
2019-02-10T10:47:28.659Z,2.20
2019-02-10T10:48:28.880Z,3.00
2019-02-10T10:49:29.136Z,3.10
2019-02-10T10:50:29.375Z,2.80
2019-02-10T10:51:29.621Z,3.10
2019-02-10T10:52:29.853Z,2.70
2019-02-10T10:53:30.117Z,2.80
2019-02-10T10:54:30.341Z,3.40
2019-02-10T10:55:30.568Z,4.60
2019-02-10T10:56:30.789Z,2.10
2019-02-10T10:57:31.016Z,3.40
2019-02-10T10:58:31.285Z,3.20
2019-02-10T10:59:31.520Z,2.70
2019-02-10T11:00:31.824Z,2.70
2019-02-10T11:01:31.933Z,2.90
2019-02-10T11:02:32.268Z,3.40
2019-02-10T11:03:32.418Z,3.00
2019-02-10T11:04:32.672Z,3.00
2019-02-10T11:05:32.904Z,4.00
2019-02-10T11:06:34.039Z,2.70
2019-02-10T11:07:33.375Z,2.80
2019-02-10T11:08:33.675Z,3.40
2019-02-10T11:09:35.531Z,2.30
2019-02-10T11:10:34.078Z,3.90
2019-02-10T11:11:34.312Z,3.20
2019-02-10T11:12:34.614Z,3.10
2019-02-10T11:13:34.765Z,2.50
2019-02-10T11:14:34.998Z,3.00
2019-02-10T11:15:35.285Z,4.50
2019-02-10T11:16:35.658Z,3.40
2019-02-10T11:17:35.870Z,3.20
2019-02-10T11:18:36.068Z,2.80
2019-02-10T11:19:36.263Z,2.90
2019-02-10T11:20:36.471Z,3.70
2019-02-10T11:21:36.725Z,2.90
2019-02-10T11:22:36.933Z,2.90
2019-02-10T11:23:37.109Z,2.60
2019-02-10T11:24:37.330Z,2.50
2019-02-10T11:25:37.557Z,2.50
2019-02-10T11:26:37.766Z,2.40
2019-02-10T11:27:37.932Z,2.40
2019-02-10T11:28:38.058Z,3.10
2019-02-10T11:29:38.296Z,3.40
2019-02-10T11:30:38.529Z,3.30
2019-02-10T11:31:38.764Z,3.10
2019-02-10T11:32:38.999Z,4.10
2019-02-10T11:33:39.347Z,3.20
2019-02-10T11:34:46.097Z,2.10
2019-02-10T11:35:39.768Z,4.50
2019-02-10T11:36:39.885Z,3.40
2019-02-10T11:37:40.206Z,2.20
2019-02-10T11:38:40.377Z,4.10
2019-02-10T11:39:43.765Z,3.50
2019-02-10T11:40:40.773Z,5.50
2019-02-10T11:41:40.926Z,3.20
2019-02-10T11:42:41.160Z,3.00
2019-02-10T11:43:41.382Z,3.80
2019-02-10T11:44:41.618Z,3.40
2019-02-10T11:45:41.873Z,4.40
2019-02-10T11:46:42.119Z,3.10
2019-02-10T11:47:42.418Z,3.10
2019-02-10T11:48:42.524Z,4.20
2019-02-10T11:49:42.852Z,3.20
2019-02-10T11:50:43.046Z,3.10
2019-02-10T11:51:43.197Z,3.60
2019-02-10T11:52:43.446Z,2.60
2019-02-10T11:53:43.706Z,2.30
2019-02-10T11:54:43.945Z,3.10
2019-02-10T11:55:44.243Z,4.20
2019-02-10T11:56:44.372Z,3.40
2019-02-10T11:57:44.630Z,4.10
2019-02-10T11:58:44.977Z,2.80
2019-02-10T11:59:45.155Z,2.40
2019-02-10T12:00:45.379Z,2.40
2019-02-10T12:01:45.557Z,3.60
2019-02-10T12:02:45.724Z,2.80
2019-02-10T12:03:45.934Z,2.70
2019-02-10T12:04:46.126Z,6.50
2019-02-10T12:05:46.363Z,4.50
2019-02-10T12:06:46.583Z,2.70
2019-02-10T12:07:46.841Z,2.70
2019-02-10T12:08:47.081Z,2.10
2019-02-10T12:09:51.665Z,2.40
2019-02-10T12:10:47.507Z,2.60
2019-02-10T12:11:47.699Z,2.30
2019-02-10T12:12:47.893Z,3.10
2019-02-10T12:13:48.048Z,2.40
2019-02-10T12:14:48.398Z,5.50
2019-02-10T12:15:48.631Z,4.90
2019-02-10T12:16:48.864Z,4.40
2019-02-10T12:17:49.028Z,4.50
2019-02-10T12:18:49.226Z,18.70
2019-02-10T12:19:49.466Z,15.70
2019-02-10T12:20:49.693Z,2.80
2019-02-10T12:21:49.853Z,3.40
2019-02-10T12:22:50.571Z,8.90
2019-02-10T12:23:50.400Z,7.50
2019-02-10T12:24:50.616Z,6.00
2019-02-10T12:25:50.798Z,3.80
2019-02-10T12:26:51.023Z,2.60
2019-02-10T12:27:51.206Z,8.70
2019-02-10T12:28:51.424Z,7.50
2019-02-10T12:29:51.590Z,14.10
2019-02-10T12:30:51.845Z,5.50
2019-02-10T12:31:52.074Z,6.60
2019-02-10T12:32:52.316Z,4.00
2019-02-10T12:33:52.546Z,2.50
2019-02-10T12:34:52.725Z,4.80
2019-02-10T12:35:58.118Z,2.40
2019-02-10T12:36:53.170Z,8.70
2019-02-10T12:37:53.362Z,6.30
2019-02-10T12:38:53.581Z,5.50
2019-02-10T12:39:59.593Z,4.90
2019-02-10T12:40:54.955Z,4.10
2019-02-10T12:41:54.326Z,5.60
2019-02-10T12:42:54.568Z,3.20
2019-02-10T12:43:54.805Z,2.60
2019-02-10T12:44:55.038Z,3.40
2019-02-10T12:45:55.272Z,4.10
2019-02-10T12:46:55.494Z,4.90
2019-02-10T12:47:55.719Z,5.50
2019-02-10T12:48:55.927Z,2.10
2019-02-10T12:49:56.185Z,3.20
2019-02-10T12:50:56.388Z,5.60
2019-02-10T12:51:56.608Z,4.00
2019-02-10T12:52:56.826Z,3.70
2019-02-10T12:53:57.083Z,2.60
2019-02-10T12:54:57.963Z,3.00
2019-02-10T12:55:57.580Z,3.00
2019-02-10T12:56:57.824Z,3.30
2019-02-10T12:57:58.083Z,2.60
2019-02-10T12:58:58.318Z,4.20
2019-02-10T12:59:58.524Z,3.10
2019-02-10T13:00:58.785Z,2.70
2019-02-10T13:01:58.990Z,4.00
2019-02-10T13:02:59.243Z,4.00
2019-02-10T13:03:59.459Z,4.00
2019-02-10T13:04:59.679Z,9.60
2019-02-10T13:05:59.898Z,7.30
2019-02-10T13:07:00.103Z,7.70
2019-02-10T13:08:00.318Z,7.40
2019-02-10T13:09:00.570Z,24.60
2019-02-10T13:10:08.001Z,25.10